createdAt,value
2017-11-08T00:00:20.939Z,0
2017-11-08T00:01:19.812Z,0
2017-11-08T00:02:19.811Z,0
2017-11-08T00:03:20.124Z,0
2017-11-08T00:04:19.607Z,0
2017-11-08T00:05:21.514Z,0
2017-11-08T00:06:19.598Z,0
2017-11-08T00:07:20.124Z,0
2017-11-08T00:08:19.130Z,0
2017-11-08T00:09:19.134Z,0
2017-11-08T00:10:21.216Z,0
2017-11-08T00:11:19.443Z,0
2017-11-08T00:12:19.426Z,0
2017-11-08T00:13:19.461Z,0
2017-11-08T00:14:19.416Z,0
2017-11-08T00:15:21.181Z,0
2017-11-08T00:16:19.415Z,0
2017-11-08T00:17:19.822Z,0
2017-11-08T00:18:19.399Z,0
2017-11-08T00:19:19.436Z,0
2017-11-08T00:20:21.432Z,0
2017-11-08T00:21:19.742Z,0
2017-11-08T00:22:19.385Z,0
2017-11-08T00:23:19.743Z,0
2017-11-08T00:24:20.039Z,0
2017-11-08T00:25:19.810Z,0
2017-11-08T00:26:19.367Z,0
2017-11-08T00:27:19.732Z,0
2017-11-08T00:28:19.367Z,0
2017-11-08T00:29:18.911Z,0
2017-11-08T00:30:21.429Z,0
2017-11-08T00:31:19.025Z,0
2017-11-08T00:32:18.690Z,0
2017-11-08T00:33:19.664Z,0
2017-11-08T00:34:19.674Z,0
2017-11-08T00:35:20.948Z,0
2017-11-08T00:36:19.322Z,0
2017-11-08T00:37:19.649Z,0
2017-11-08T00:38:19.001Z,0
2017-11-08T00:39:19.344Z,0
2017-11-08T00:40:21.305Z,0
2017-11-08T00:41:19.963Z,0
2017-11-08T00:42:19.285Z,0
2017-11-08T00:43:19.937Z,0
2017-11-08T00:44:19.609Z,0
2017-11-08T00:45:20.643Z,0
2017-11-08T00:46:19.293Z,0
2017-11-08T00:47:19.922Z,0
2017-11-08T00:48:19.267Z,0
2017-11-08T00:49:19.592Z,0
2017-11-08T00:50:20.529Z,0
2017-11-08T00:51:19.572Z,0
2017-11-08T00:52:19.282Z,0
2017-11-08T00:53:19.252Z,0
2017-11-08T00:54:19.225Z,0
2017-11-08T00:55:21.041Z,0
2017-11-08T00:56:19.218Z,0
2017-11-08T00:57:18.572Z,0
2017-11-08T00:58:19.554Z,0
2017-11-08T00:59:19.209Z,0
2017-11-08T01:00:21.180Z,0
2017-11-08T01:01:20.644Z,0
2017-11-08T01:02:19.505Z,0
2017-11-08T01:03:18.864Z,0
2017-11-08T01:04:18.890Z,0
2017-11-08T01:05:20.635Z,0
2017-11-08T01:06:19.165Z,0
2017-11-08T01:07:19.491Z,0
2017-11-08T01:08:19.828Z,0
2017-11-08T01:09:19.467Z,0
2017-11-08T01:10:20.340Z,0
2017-11-08T01:11:19.466Z,0
2017-11-08T01:12:19.774Z,0
2017-11-08T01:13:19.450Z,0
2017-11-08T01:14:19.768Z,0
2017-11-08T01:15:20.473Z,0
2017-11-08T01:16:18.794Z,0
2017-11-08T01:17:19.449Z,0
2017-11-08T01:18:19.101Z,0
2017-11-08T01:19:19.418Z,0
2017-11-08T01:20:20.805Z,0
2017-11-08T01:21:18.768Z,0
2017-11-08T01:22:19.409Z,0
2017-11-08T01:23:19.074Z,0
2017-11-08T01:24:19.540Z,0
2017-11-08T01:25:20.314Z,0
2017-11-08T01:26:19.380Z,0
2017-11-08T01:27:19.705Z,0
2017-11-08T01:28:18.734Z,0
2017-11-08T01:29:19.370Z,0
2017-11-08T01:30:20.376Z,0
2017-11-08T01:31:19.361Z,0
2017-11-08T01:32:19.049Z,0
2017-11-08T01:33:18.700Z,0
2017-11-08T01:34:19.353Z,0
2017-11-08T01:35:19.958Z,0
2017-11-08T01:36:19.660Z,0
2017-11-08T01:37:18.682Z,0
2017-11-08T01:38:19.000Z,0
2017-11-08T01:39:18.987Z,0
2017-11-08T01:40:20.943Z,0
2017-11-08T01:41:19.311Z,0
2017-11-08T01:42:19.619Z,0
2017-11-08T01:43:19.299Z,0
2017-11-08T01:44:18.973Z,0
2017-11-08T01:45:21.125Z,0
2017-11-08T01:46:19.280Z,0
2017-11-08T01:47:18.654Z,0
2017-11-08T01:48:19.270Z,0
2017-11-08T01:49:19.583Z,0
2017-11-08T01:50:19.831Z,0
2017-11-08T01:51:19.267Z,0
2017-11-08T01:52:18.943Z,0
2017-11-08T01:53:18.613Z,0
2017-11-08T01:54:18.915Z,0
2017-11-08T01:55:20.305Z,0
2017-11-08T01:56:19.230Z,0
2017-11-08T01:57:18.915Z,0
2017-11-08T01:58:19.228Z,0
2017-11-08T01:59:19.534Z,0
2017-11-08T02:00:19.731Z,0
2017-11-08T02:01:21.279Z,0
2017-11-08T02:02:19.524Z,0
2017-11-08T02:03:18.896Z,0
2017-11-08T02:04:18.888Z,0
2017-11-08T02:05:20.557Z,0
2017-11-08T02:06:19.198Z,0
2017-11-08T02:07:19.513Z,0
2017-11-08T02:08:18.570Z,0
2017-11-08T02:09:18.840Z,0
2017-11-08T02:10:20.795Z,0
2017-11-08T02:11:19.483Z,0
2017-11-08T02:12:18.201Z,0
2017-11-08T02:13:18.818Z,0
2017-11-08T02:14:19.461Z,0
2017-11-08T02:15:20.836Z,0
2017-11-08T02:16:19.636Z,0
2017-11-08T02:17:19.445Z,0
2017-11-08T02:18:18.806Z,0
2017-11-08T02:19:19.123Z,0
2017-11-08T02:20:19.591Z,0
2017-11-08T02:21:19.122Z,0
2017-11-08T02:22:18.479Z,0
2017-11-08T02:23:19.086Z,0
2017-11-08T02:24:18.464Z,0
2017-11-08T02:25:19.889Z,0
2017-11-08T02:26:19.082Z,0
2017-11-08T02:27:18.443Z,0
2017-11-08T02:28:19.393Z,0
2017-11-08T02:29:19.388Z,0
2017-11-08T02:30:19.907Z,0
2017-11-08T02:31:19.538Z,0
2017-11-08T02:32:18.408Z,0
2017-11-08T02:33:19.050Z,0
2017-11-08T02:34:18.402Z,0
2017-11-08T02:35:20.118Z,0
2017-11-08T02:36:19.359Z,0
2017-11-08T02:37:19.024Z,0
2017-11-08T02:38:19.353Z,0
2017-11-08T02:39:19.007Z,0
2017-11-08T02:40:20.550Z,0
2017-11-08T02:41:19.007Z,0
2017-11-08T02:42:18.689Z,0
2017-11-08T02:43:19.032Z,0
2017-11-08T02:44:18.667Z,0
2017-11-08T02:45:19.770Z,0
2017-11-08T02:46:19.052Z,0
2017-11-08T02:47:18.654Z,0
2017-11-08T02:48:18.661Z,0
2017-11-08T02:49:18.970Z,0
2017-11-08T02:50:19.698Z,0
2017-11-08T02:51:19.002Z,0
2017-11-08T02:52:18.625Z,0
2017-11-08T02:53:18.946Z,0
2017-11-08T02:54:18.978Z,0
2017-11-08T02:55:19.460Z,0
2017-11-08T02:56:19.275Z,0
2017-11-08T02:57:18.605Z,0
2017-11-08T02:58:18.611Z,0
2017-11-08T02:59:19.265Z,0
2017-11-08T03:00:20.528Z,0
2017-11-08T03:01:18.925Z,0
2017-11-08T03:02:19.372Z,0
2017-11-08T03:03:18.574Z,0
2017-11-08T03:04:18.892Z,0
2017-11-08T03:05:19.705Z,0
2017-11-08T03:06:18.558Z,0
2017-11-08T03:07:18.552Z,0
2017-11-08T03:08:18.349Z,0
2017-11-08T03:09:18.887Z,0
2017-11-08T03:10:19.526Z,0
2017-11-08T03:11:19.174Z,0
2017-11-08T03:12:18.848Z,0
2017-11-08T03:13:18.846Z,0
2017-11-08T03:14:18.835Z,0
2017-11-08T03:15:19.646Z,0
2017-11-08T03:16:18.830Z,0
2017-11-08T03:17:18.877Z,0
2017-11-08T03:18:18.167Z,0
2017-11-08T03:19:18.494Z,0
2017-11-08T03:20:19.771Z,0
2017-11-08T03:21:18.501Z,0
2017-11-08T03:22:18.477Z,0
2017-11-08T03:23:18.797Z,0
2017-11-08T03:24:18.467Z,0
2017-11-08T03:25:19.415Z,0
2017-11-08T03:26:18.783Z,0
2017-11-08T03:27:18.457Z,0
2017-11-08T03:28:18.454Z,0
2017-11-08T03:29:18.764Z,0
2017-11-08T03:30:20.231Z,0
2017-11-08T03:31:18.461Z,0
2017-11-08T03:32:20.317Z,0
2017-11-08T03:33:18.099Z,0
2017-11-08T03:34:18.445Z,0
2017-11-08T03:35:19.318Z,0
2017-11-08T03:36:18.738Z,0
2017-11-08T03:37:18.725Z,0
2017-11-08T03:38:18.078Z,0
2017-11-08T03:39:19.044Z,0
2017-11-08T03:40:20.216Z,0
2017-11-08T03:41:19.029Z,0
2017-11-08T03:42:18.695Z,0
2017-11-08T03:43:18.364Z,0
2017-11-08T03:44:18.038Z,0
2017-11-08T03:45:19.742Z,0
2017-11-08T03:46:18.668Z,0
2017-11-08T03:47:18.404Z,0
2017-11-08T03:48:18.012Z,0
2017-11-08T03:49:18.665Z,0
2017-11-08T03:50:19.886Z,0
2017-11-08T03:51:18.325Z,0
2017-11-08T03:52:18.962Z,0
2017-11-08T03:53:18.646Z,0
2017-11-08T03:54:18.624Z,0
2017-11-08T03:55:20.201Z,0
2017-11-08T03:56:18.621Z,0
2017-11-08T03:57:18.613Z,0
2017-11-08T03:58:18.608Z,0
2017-11-08T03:59:18.618Z,0
2017-11-08T04:00:19.762Z,0
2017-11-08T04:01:18.591Z,0
2017-11-08T04:02:20.172Z,0
2017-11-08T04:03:18.904Z,0
2017-11-08T04:04:18.575Z,0
2017-11-08T04:05:20.563Z,0
2017-11-08T04:06:18.558Z,0
2017-11-08T04:07:18.900Z,0
2017-11-08T04:08:17.907Z,0
2017-11-08T04:09:18.569Z,0
2017-11-08T04:10:20.201Z,0
2017-11-08T04:11:18.870Z,0
2017-11-08T04:12:18.207Z,0
2017-11-08T04:13:18.203Z,0
2017-11-08T04:14:18.528Z,0
2017-11-08T04:15:19.329Z,0
2017-11-08T04:16:18.522Z,0
2017-11-08T04:17:18.506Z,0
2017-11-08T04:18:18.503Z,0
2017-11-08T04:19:18.518Z,0
2017-11-08T04:20:19.361Z,0
2017-11-08T04:21:18.490Z,0
2017-11-08T04:22:18.802Z,0
2017-11-08T04:23:18.161Z,0
2017-11-08T04:24:18.165Z,0
2017-11-08T04:25:19.560Z,0
2017-11-08T04:26:18.141Z,0
2017-11-08T04:27:18.152Z,0
2017-11-08T04:28:18.479Z,0
2017-11-08T04:29:18.801Z,0
2017-11-08T04:30:20.453Z,0
2017-11-08T04:31:18.750Z,0
2017-11-08T04:32:18.112Z,0
2017-11-08T04:33:20.643Z,0
2017-11-08T04:34:18.448Z,0
2017-11-08T04:35:19.863Z,0
2017-11-08T04:36:18.418Z,0
2017-11-08T04:37:18.078Z,0
2017-11-08T04:38:18.710Z,0
2017-11-08T04:39:17.739Z,0
2017-11-08T04:40:19.008Z,0
2017-11-08T04:41:18.068Z,0
2017-11-08T04:42:18.047Z,0
2017-11-08T04:43:18.061Z,0
2017-11-08T04:44:18.359Z,0
2017-11-08T04:45:19.190Z,0
2017-11-08T04:46:18.359Z,0
2017-11-08T04:47:18.017Z,0
2017-11-08T04:48:18.719Z,0
2017-11-08T04:49:17.684Z,0
2017-11-08T04:50:19.613Z,0
2017-11-08T04:51:18.648Z,0
2017-11-08T04:52:18.322Z,0
2017-11-08T04:53:18.629Z,0
2017-11-08T04:54:18.003Z,0
2017-11-08T04:55:19.337Z,0
2017-11-08T04:56:17.981Z,0
2017-11-08T04:57:18.005Z,0
2017-11-08T04:58:18.298Z,0
2017-11-08T04:59:18.327Z,0
2017-11-08T05:00:19.904Z,0
2017-11-08T05:01:18.286Z,0
2017-11-08T05:02:18.258Z,0
2017-11-08T05:03:19.885Z,0
2017-11-08T05:04:18.575Z,0
2017-11-08T05:05:19.566Z,0
2017-11-08T05:06:18.558Z,0
2017-11-08T05:07:18.568Z,0
2017-11-08T05:08:17.919Z,0
2017-11-08T05:09:17.919Z,0
2017-11-08T05:10:19.308Z,0
2017-11-08T05:11:18.210Z,0
2017-11-08T05:12:17.895Z,0
2017-11-08T05:13:17.582Z,0
2017-11-08T05:14:18.223Z,0
2017-11-08T05:15:19.172Z,0
2017-11-08T05:16:18.521Z,0
2017-11-08T05:17:17.880Z,0
2017-11-08T05:18:17.919Z,0
2017-11-08T05:19:17.851Z,0
2017-11-08T05:20:19.643Z,0
2017-11-08T05:21:18.164Z,0
2017-11-08T05:22:18.170Z,0
2017-11-08T05:23:17.544Z,0
2017-11-08T05:24:18.476Z,0
2017-11-08T05:25:19.672Z,0
2017-11-08T05:26:18.154Z,0
2017-11-08T05:27:17.832Z,0
2017-11-08T05:28:18.137Z,0
2017-11-08T05:29:18.138Z,0
2017-11-08T05:30:19.339Z,0
2017-11-08T05:31:17.828Z,0
2017-11-08T05:32:18.139Z,0
2017-11-08T05:33:17.474Z,0
2017-11-08T05:34:17.801Z,0
2017-11-08T05:35:20.179Z,0
2017-11-08T05:36:18.129Z,0
2017-11-08T05:37:18.413Z,0
2017-11-08T05:38:17.455Z,0
2017-11-08T05:39:18.080Z,0
2017-11-08T05:40:19.858Z,0
2017-11-08T05:41:18.069Z,0
2017-11-08T05:42:17.746Z,0
2017-11-08T05:43:18.062Z,0
2017-11-08T05:44:18.041Z,0
2017-11-08T05:45:18.582Z,0
2017-11-08T05:46:18.049Z,0
2017-11-08T05:47:18.372Z,0
2017-11-08T05:48:17.423Z,0
2017-11-08T05:49:18.026Z,0
2017-11-08T05:50:19.896Z,0
2017-11-08T05:51:18.016Z,0
2017-11-08T05:52:18.338Z,0
2017-11-08T05:53:18.054Z,0
2017-11-08T05:54:17.685Z,0
2017-11-08T05:55:18.293Z,0
2017-11-08T05:56:17.715Z,0
2017-11-08T05:57:18.318Z,0
2017-11-08T05:58:18.307Z,0
2017-11-08T05:59:17.339Z,0
2017-11-08T06:00:19.869Z,0
2017-11-08T06:01:17.960Z,0
2017-11-08T06:02:17.957Z,0
2017-11-08T06:03:20.178Z,0
2017-11-08T06:04:17.939Z,0
2017-11-08T06:05:18.905Z,0
2017-11-08T06:06:18.272Z,0
2017-11-08T06:07:17.658Z,0
2017-11-08T06:08:17.619Z,0
2017-11-08T06:09:17.637Z,0
2017-11-08T06:10:19.342Z,0
2017-11-08T06:11:17.615Z,0
2017-11-08T06:12:18.224Z,0
2017-11-08T06:13:17.910Z,0
2017-11-08T06:14:17.254Z,0
2017-11-08T06:15:19.948Z,0
2017-11-08T06:16:18.215Z,0
2017-11-08T06:17:18.208Z,0
2017-11-08T06:18:18.210Z,0
2017-11-08T06:19:17.889Z,0
2017-11-08T06:20:19.442Z,0
2017-11-08T06:21:17.861Z,0
2017-11-08T06:22:17.524Z,0
2017-11-08T06:23:17.882Z,0
2017-11-08T06:24:17.861Z,0
2017-11-08T06:25:19.164Z,0
2017-11-08T06:26:18.181Z,0
2017-11-08T06:27:17.538Z,0
2017-11-08T06:28:17.846Z,0
2017-11-08T06:29:17.497Z,0
2017-11-08T06:30:18.645Z,0
2017-11-08T06:31:17.816Z,0
2017-11-08T06:32:17.827Z,0
2017-11-08T06:33:17.805Z,0
2017-11-08T06:34:18.136Z,0
2017-11-08T06:35:18.823Z,0
2017-11-08T06:36:18.129Z,0
2017-11-08T06:37:17.463Z,0
2017-11-08T06:38:17.475Z,0
2017-11-08T06:39:17.123Z,0
2017-11-08T06:40:18.377Z,0
2017-11-08T06:41:17.449Z,0
2017-11-08T06:42:17.426Z,0
2017-11-08T06:43:17.756Z,5
2017-11-08T06:44:17.440Z,5
2017-11-08T06:45:18.883Z,5
2017-11-08T06:46:17.754Z,5
2017-11-08T06:47:17.417Z,5
2017-11-08T06:48:17.406Z,5
2017-11-08T06:49:18.543Z,5
2017-11-08T06:50:19.388Z,5
2017-11-08T06:51:17.722Z,5
2017-11-08T06:52:17.058Z,5
2017-11-08T06:53:18.023Z,5
2017-11-08T06:54:17.999Z,5
2017-11-08T06:55:18.917Z,10
2017-11-08T06:56:17.682Z,10
2017-11-08T06:57:17.702Z,10
2017-11-08T06:58:17.993Z,10
2017-11-08T06:59:17.350Z,10
2017-11-08T07:00:18.765Z,10
2017-11-08T07:01:17.668Z,10
2017-11-08T07:02:17.339Z,10
2017-11-08T07:03:17.659Z,10
2017-11-08T07:04:17.965Z,10
2017-11-08T07:05:18.696Z,10
2017-11-08T07:06:17.951Z,10
2017-11-08T07:07:17.965Z,10
2017-11-08T07:08:17.284Z,10
2017-11-08T07:09:16.968Z,10
2017-11-08T07:10:19.111Z,15
2017-11-08T07:11:17.618Z,15
2017-11-08T07:12:17.276Z,15
2017-11-08T07:13:17.285Z,15
2017-11-08T07:14:17.275Z,15
2017-11-08T07:15:18.840Z,15
2017-11-08T07:16:17.588Z,15
2017-11-08T07:17:17.249Z,15
2017-11-08T07:18:17.894Z,15
2017-11-08T07:19:19.101Z,15
2017-11-08T07:20:18.013Z,15
2017-11-08T07:21:17.546Z,15
2017-11-08T07:22:17.220Z,15
2017-11-08T07:23:17.879Z,15
2017-11-08T07:24:17.205Z,15
2017-11-08T07:25:18.958Z,20
2017-11-08T07:26:17.205Z,15
2017-11-08T07:27:17.547Z,15
2017-11-08T07:28:17.505Z,15
2017-11-08T07:29:17.507Z,15
2017-11-08T07:30:18.656Z,15
2017-11-08T07:31:17.504Z,15
2017-11-08T07:32:17.498Z,15
2017-11-08T07:33:17.177Z,15
2017-11-08T07:34:17.511Z,15
2017-11-08T07:35:18.007Z,15
2017-11-08T07:36:17.487Z,20
2017-11-08T07:37:17.469Z,15
2017-11-08T07:38:17.805Z,15
2017-11-08T07:39:17.456Z,20
2017-11-08T07:40:18.299Z,20
2017-11-08T07:41:17.444Z,20
2017-11-08T07:42:17.140Z,20
2017-11-08T07:43:17.456Z,20
2017-11-08T07:44:17.441Z,20
2017-11-08T07:45:18.750Z,20
2017-11-08T07:46:17.752Z,20
2017-11-08T07:47:17.125Z,20
2017-11-08T07:48:17.417Z,20
2017-11-08T07:49:18.728Z,20
2017-11-08T07:50:18.021Z,25
2017-11-08T07:51:17.400Z,25
2017-11-08T07:52:16.750Z,25
2017-11-08T07:53:17.387Z,25
2017-11-08T07:54:17.418Z,25
2017-11-08T07:55:18.148Z,30
2017-11-08T07:56:17.752Z,30
2017-11-08T07:57:16.735Z,30
2017-11-08T07:58:17.367Z,30
2017-11-08T07:59:17.719Z,25
2017-11-08T08:00:18.227Z,25
2017-11-08T08:01:16.403Z,25
2017-11-08T08:02:17.671Z,25
2017-11-08T08:03:17.691Z,25
2017-11-08T08:04:17.329Z,25
2017-11-08T08:05:18.928Z,25
2017-11-08T08:06:17.011Z,25
2017-11-08T08:07:16.998Z,25
2017-11-08T08:08:17.330Z,25
2017-11-08T08:09:17.630Z,25
2017-11-08T08:10:18.399Z,25
2017-11-08T08:11:16.975Z,20
2017-11-08T08:12:17.618Z,20
2017-11-08T08:13:16.969Z,20
2017-11-08T08:14:17.285Z,20
2017-11-08T08:15:18.214Z,20
2017-11-08T08:16:16.666Z,20
2017-11-08T08:17:17.272Z,20
2017-11-08T08:18:16.943Z,20
2017-11-08T08:19:20.470Z,20
2017-11-08T08:20:19.287Z,20
2017-11-08T08:21:17.586Z,20
2017-11-08T08:22:17.572Z,20
2017-11-08T08:23:16.595Z,20
2017-11-08T08:24:17.585Z,20
2017-11-08T08:25:17.636Z,20
2017-11-08T08:26:16.966Z,20
2017-11-08T08:27:16.646Z,15
2017-11-08T08:28:17.539Z,15
2017-11-08T08:29:16.892Z,15
2017-11-08T08:30:19.480Z,15
2017-11-08T08:31:17.597Z,15
2017-11-08T08:32:17.281Z,15
2017-11-08T08:33:17.198Z,15
2017-11-08T08:34:17.515Z,15
2017-11-08T08:35:17.898Z,15
2017-11-08T08:36:17.178Z,20
2017-11-08T08:37:16.849Z,20
2017-11-08T08:38:16.529Z,20
2017-11-08T08:39:17.167Z,20
2017-11-08T08:40:18.055Z,20
2017-11-08T08:41:16.833Z,20
2017-11-08T08:42:17.496Z,25
2017-11-08T08:43:17.155Z,25
2017-11-08T08:44:17.134Z,25
2017-11-08T08:45:17.945Z,25
2017-11-08T08:46:17.131Z,25
2017-11-08T08:47:17.457Z,25
2017-11-08T08:48:16.798Z,20
2017-11-08T08:49:17.437Z,20
2017-11-08T08:50:18.715Z,25
2017-11-08T08:51:16.810Z,25
2017-11-08T08:52:16.786Z,25
2017-11-08T08:53:17.090Z,25
2017-11-08T08:54:16.458Z,25
2017-11-08T08:55:17.552Z,25
2017-11-08T08:56:17.085Z,25
2017-11-08T08:57:16.522Z,25
2017-11-08T08:58:17.406Z,20
2017-11-08T08:59:17.068Z,20
2017-11-08T09:00:18.497Z,20
2017-11-08T09:01:17.380Z,20
2017-11-08T09:02:17.142Z,20
2017-11-08T09:03:17.069Z,25
2017-11-08T09:04:17.046Z,25
2017-11-08T09:05:17.928Z,25
2017-11-08T09:06:17.093Z,25
2017-11-08T09:07:16.380Z,25
2017-11-08T09:08:17.024Z,20
2017-11-08T09:09:17.028Z,20
2017-11-08T09:10:18.446Z,20
2017-11-08T09:11:17.332Z,15
2017-11-08T09:12:16.358Z,15
2017-11-08T09:13:16.708Z,15
2017-11-08T09:14:17.015Z,15
2017-11-08T09:15:18.049Z,15
2017-11-08T09:16:17.014Z,15
2017-11-08T09:17:16.979Z,15
2017-11-08T09:18:16.653Z,15
2017-11-08T09:19:17.291Z,15
2017-11-08T09:20:17.716Z,15
2017-11-08T09:21:18.085Z,15
2017-11-08T09:22:17.283Z,15
2017-11-08T09:23:16.959Z,15
2017-11-08T09:24:16.959Z,15
2017-11-08T09:25:18.876Z,15
2017-11-08T09:26:16.953Z,15
2017-11-08T09:27:17.257Z,15
2017-11-08T09:28:17.250Z,15
2017-11-08T09:29:17.262Z,15
2017-11-08T09:30:18.345Z,15
2017-11-08T09:31:16.617Z,15
2017-11-08T09:32:17.240Z,15
2017-11-08T09:33:17.245Z,15
2017-11-08T09:34:16.587Z,20
2017-11-08T09:35:18.404Z,20
2017-11-08T09:36:16.943Z,25
2017-11-08T09:37:16.936Z,25
2017-11-08T09:38:17.211Z,30
2017-11-08T09:39:16.884Z,35
2017-11-08T09:40:18.319Z,40
2017-11-08T09:41:16.252Z,40
2017-11-08T09:42:16.258Z,45
2017-11-08T09:43:16.539Z,50
2017-11-08T09:44:16.866Z,50
2017-11-08T09:45:18.386Z,50
2017-11-08T09:46:16.551Z,55
2017-11-08T09:47:16.206Z,60
2017-11-08T09:48:16.232Z,60
2017-11-08T09:49:17.160Z,60
2017-11-08T09:50:18.042Z,60
2017-11-08T09:51:17.978Z,65
2017-11-08T09:52:17.186Z,65
2017-11-08T09:53:16.495Z,65
2017-11-08T09:54:16.497Z,60
2017-11-08T09:55:17.762Z,65
2017-11-08T09:56:16.818Z,65
2017-11-08T09:57:17.142Z,65
2017-11-08T09:58:16.814Z,65
2017-11-08T09:59:16.809Z,65
2017-11-08T10:00:17.968Z,65
2017-11-08T10:01:16.142Z,70
2017-11-08T10:02:17.135Z,70
2017-11-08T10:03:16.785Z,65
2017-11-08T10:04:16.475Z,70
2017-11-08T10:05:17.731Z,70
2017-11-08T10:06:16.130Z,70
2017-11-08T10:07:16.834Z,70
2017-11-08T10:08:16.848Z,70
2017-11-08T10:09:16.898Z,70
2017-11-08T10:10:18.311Z,65
2017-11-08T10:11:16.777Z,60
2017-11-08T10:12:16.147Z,60
2017-11-08T10:13:16.801Z,55
2017-11-08T10:14:16.803Z,55
2017-11-08T10:15:18.765Z,55
2017-11-08T10:16:16.748Z,55
2017-11-08T10:17:16.410Z,55
2017-11-08T10:18:16.739Z,55
2017-11-08T10:19:16.410Z,60
2017-11-08T10:20:17.564Z,60
2017-11-08T10:21:17.928Z,60
2017-11-08T10:22:16.403Z,60
2017-11-08T10:23:16.697Z,60
2017-11-08T10:24:17.061Z,65
2017-11-08T10:25:17.153Z,65
2017-11-08T10:26:16.728Z,60
2017-11-08T10:27:17.028Z,60
2017-11-08T10:28:16.685Z,55
2017-11-08T10:29:17.012Z,55
2017-11-08T10:30:17.537Z,55
2017-11-08T10:31:16.994Z,55
2017-11-08T10:32:16.982Z,50
2017-11-08T10:33:16.674Z,50
2017-11-08T10:34:16.990Z,50
2017-11-08T10:35:17.699Z,50
2017-11-08T10:36:16.973Z,50
2017-11-08T10:37:16.663Z,50
2017-11-08T10:38:16.002Z,50
2017-11-08T10:39:16.334Z,50
2017-11-08T10:40:17.443Z,50
2017-11-08T10:41:16.650Z,50
2017-11-08T10:42:16.600Z,45
2017-11-08T10:43:16.594Z,45
2017-11-08T10:44:16.278Z,40
2017-11-08T10:45:17.872Z,40
2017-11-08T10:46:16.606Z,35
2017-11-08T10:47:16.263Z,35
2017-11-08T10:48:16.243Z,30
2017-11-08T10:49:16.913Z,30
2017-11-08T10:50:17.729Z,30
2017-11-08T10:51:19.480Z,30
2017-11-08T10:52:16.237Z,25
2017-11-08T10:53:16.909Z,25
2017-11-08T10:54:16.555Z,25
2017-11-08T10:55:16.973Z,25
2017-11-08T10:56:16.225Z,25
2017-11-08T10:57:16.230Z,25
2017-11-08T10:58:16.552Z,20
2017-11-08T10:59:16.562Z,20
2017-11-08T11:00:17.213Z,20
2017-11-08T11:01:16.554Z,20
2017-11-08T11:02:16.530Z,20
2017-11-08T11:03:16.210Z,20
2017-11-08T11:04:16.208Z,20
2017-11-08T11:05:17.854Z,20
2017-11-08T11:06:16.858Z,25
2017-11-08T11:07:16.504Z,25
2017-11-08T11:08:16.837Z,25
2017-11-08T11:09:16.843Z,25
2017-11-08T11:10:17.649Z,25
2017-11-08T11:11:16.793Z,25
2017-11-08T11:12:16.842Z,25
2017-11-08T11:13:16.149Z,25
2017-11-08T11:14:16.171Z,25
2017-11-08T11:15:17.864Z,25
2017-11-08T11:16:16.496Z,30
2017-11-08T11:17:16.780Z,30
2017-11-08T11:18:16.477Z,30
2017-11-08T11:19:16.800Z,30
2017-11-08T11:20:17.263Z,30
2017-11-08T11:21:16.442Z,35
2017-11-08T11:22:17.244Z,35
2017-11-08T11:23:16.424Z,35
2017-11-08T11:24:16.121Z,35
2017-11-08T11:25:17.929Z,35
2017-11-08T11:26:16.104Z,30
2017-11-08T11:27:16.730Z,30
2017-11-08T11:28:16.088Z,30
2017-11-08T11:29:16.727Z,30
2017-11-08T11:30:17.782Z,30
2017-11-08T11:31:16.742Z,30
2017-11-08T11:32:16.392Z,30
2017-11-08T11:33:16.713Z,35
2017-11-08T11:34:16.396Z,35
2017-11-08T11:35:17.577Z,35
2017-11-08T11:36:16.372Z,35
2017-11-08T11:37:16.370Z,35
2017-11-08T11:38:16.685Z,35
2017-11-08T11:39:16.677Z,35
2017-11-08T11:40:17.554Z,35
2017-11-08T11:41:16.673Z,35
2017-11-08T11:42:16.663Z,35
2017-11-08T11:43:16.660Z,35
2017-11-08T11:44:16.334Z,35
2017-11-08T11:45:17.449Z,35
2017-11-08T11:46:16.345Z,35
2017-11-08T11:47:16.326Z,35
2017-11-08T11:48:15.994Z,35
2017-11-08T11:49:16.666Z,30
2017-11-08T11:50:16.494Z,30
2017-11-08T11:51:16.640Z,35
2017-11-08T11:52:16.291Z,35
2017-11-08T11:53:16.630Z,35
2017-11-08T11:54:16.614Z,35
2017-11-08T11:55:16.711Z,40
2017-11-08T11:56:16.280Z,40
2017-11-08T11:57:16.279Z,40
2017-11-08T11:58:15.964Z,40
2017-11-08T11:59:16.598Z,45
2017-11-08T12:00:18.070Z,45
2017-11-08T12:01:16.596Z,45
2017-11-08T12:02:16.592Z,45
2017-11-08T12:03:15.922Z,45
2017-11-08T12:04:15.922Z,45
2017-11-08T12:05:17.733Z,45
2017-11-08T12:06:16.262Z,45
2017-11-08T12:07:15.914Z,45
2017-11-08T12:08:15.894Z,40
2017-11-08T12:09:16.212Z,40
2017-11-08T12:10:17.417Z,40
2017-11-08T12:11:16.543Z,40
2017-11-08T12:12:17.014Z,40
2017-11-08T12:13:16.537Z,40
2017-11-08T12:14:15.706Z,40
2017-11-08T12:15:16.841Z,40
2017-11-08T12:16:15.977Z,40
2017-11-08T12:17:15.569Z,40
2017-11-08T12:18:16.543Z,40
2017-11-08T12:19:16.618Z,40
2017-11-08T12:20:17.516Z,40
2017-11-08T12:21:16.169Z,40
2017-11-08T12:22:16.192Z,40
2017-11-08T12:23:16.477Z,35
2017-11-08T12:24:16.145Z,35
2017-11-08T12:25:17.843Z,35
2017-11-08T12:26:16.458Z,35
2017-11-08T12:27:16.465Z,35
2017-11-08T12:28:15.526Z,35
2017-11-08T12:29:16.469Z,30
2017-11-08T12:30:19.530Z,30
2017-11-08T12:31:16.050Z,30
2017-11-08T12:32:16.106Z,30
2017-11-08T12:33:15.795Z,30
2017-11-08T12:34:16.441Z,30
2017-11-08T12:35:17.308Z,30
2017-11-08T12:36:16.103Z,25
2017-11-08T12:37:16.462Z,25
2017-11-08T12:38:16.086Z,25
2017-11-08T12:39:15.766Z,25
2017-11-08T12:40:17.391Z,25
2017-11-08T12:41:16.075Z,25
2017-11-08T12:42:16.408Z,25
2017-11-08T12:43:16.146Z,25
2017-11-08T12:44:15.748Z,25
2017-11-08T12:45:17.128Z,25
2017-11-08T12:46:16.058Z,25
2017-11-08T12:47:16.384Z,25
2017-11-08T12:48:16.026Z,25
2017-11-08T12:49:16.346Z,25
2017-11-08T12:50:17.398Z,25
2017-11-08T12:51:15.730Z,25
2017-11-08T12:52:16.354Z,25
2017-11-08T12:53:16.336Z,25
2017-11-08T12:54:16.336Z,25
2017-11-08T12:55:17.496Z,25
2017-11-08T12:56:15.688Z,25
2017-11-08T12:57:15.989Z,25
2017-11-08T12:58:15.686Z,25
2017-11-08T12:59:16.000Z,25
2017-11-08T13:00:17.654Z,30
2017-11-08T13:01:16.325Z,30
2017-11-08T13:02:16.307Z,30
2017-11-08T13:03:16.308Z,30
2017-11-08T13:04:15.650Z,30
2017-11-08T13:05:17.961Z,30
2017-11-08T13:06:15.941Z,30
2017-11-08T13:07:15.940Z,30
2017-11-08T13:08:15.936Z,30
2017-11-08T13:09:15.638Z,30
2017-11-08T13:10:17.143Z,30
2017-11-08T13:11:16.261Z,30
2017-11-08T13:12:15.929Z,30
2017-11-08T13:13:15.909Z,30
2017-11-08T13:14:16.229Z,30
2017-11-08T13:15:17.163Z,30
2017-11-08T13:16:16.223Z,30
2017-11-08T13:17:16.220Z,30
2017-11-08T13:18:16.241Z,30
2017-11-08T13:19:16.536Z,30
2017-11-08T13:20:16.805Z,35
2017-11-08T13:21:15.935Z,30
2017-11-08T13:22:17.025Z,30
2017-11-08T13:23:16.200Z,30
2017-11-08T13:24:16.199Z,25
2017-11-08T13:25:17.138Z,25
2017-11-08T13:26:15.554Z,25
2017-11-08T13:27:16.215Z,20
2017-11-08T13:28:15.839Z,20
2017-11-08T13:29:15.867Z,20
2017-11-08T13:30:16.297Z,20
2017-11-08T13:31:15.842Z,20
2017-11-08T13:32:15.510Z,20
2017-11-08T13:33:16.141Z,20
2017-11-08T13:34:15.817Z,20
2017-11-08T13:35:17.116Z,25
2017-11-08T13:36:16.145Z,25
2017-11-08T13:37:15.506Z,25
2017-11-08T13:38:15.482Z,25
2017-11-08T13:39:15.835Z,25
2017-11-08T13:40:16.682Z,25
2017-11-08T13:41:16.116Z,30
2017-11-08T13:42:16.125Z,30
2017-11-08T13:43:15.449Z,30
2017-11-08T13:44:16.123Z,30
2017-11-08T13:45:17.050Z,30
2017-11-08T13:46:16.091Z,30
2017-11-08T13:47:16.092Z,30
2017-11-08T13:48:15.435Z,30
2017-11-08T13:49:15.757Z,30
2017-11-08T13:50:15.883Z,30
2017-11-08T13:51:15.747Z,30
2017-11-08T13:52:16.103Z,30
2017-11-08T13:53:16.103Z,30
2017-11-08T13:54:15.428Z,30
2017-11-08T13:55:16.744Z,30
2017-11-08T13:56:16.070Z,30
2017-11-08T13:57:15.384Z,35
2017-11-08T13:58:16.025Z,35
2017-11-08T13:59:16.043Z,35
2017-11-08T14:00:16.682Z,30
2017-11-08T14:01:15.374Z,30
2017-11-08T14:02:16.023Z,30
2017-11-08T14:03:15.722Z,30
2017-11-08T14:04:15.680Z,30
2017-11-08T14:05:16.078Z,30
2017-11-08T14:06:15.991Z,30
2017-11-08T14:07:15.999Z,30
2017-11-08T14:08:16.549Z,30
2017-11-08T14:09:15.341Z,30
2017-11-08T14:10:16.845Z,30
2017-11-08T14:11:15.963Z,30
2017-11-08T14:12:15.984Z,30
2017-11-08T14:13:15.659Z,30
2017-11-08T14:14:15.989Z,30
2017-11-08T14:15:17.153Z,30
2017-11-08T14:16:15.628Z,25
2017-11-08T14:17:15.935Z,25
2017-11-08T14:18:15.987Z,25
2017-11-08T14:19:15.929Z,25
2017-11-08T14:20:16.988Z,25
2017-11-08T14:21:15.621Z,25
2017-11-08T14:22:15.915Z,20
2017-11-08T14:23:16.781Z,20
2017-11-08T14:24:15.936Z,20
2017-11-08T14:25:16.015Z,20
2017-11-08T14:26:15.906Z,15
2017-11-08T14:27:16.103Z,15
2017-11-08T14:28:16.585Z,15
2017-11-08T14:29:15.842Z,15
2017-11-08T14:30:17.477Z,15